Aviation Digital Data Service (ADDS)

Output produced by METARs form (1224 UTC 28 February 2015)
found at http://www.aviationweather.gov/adds/metars/
 
KROW 281151Z AUTO 16010KT 6SM BR OVC004 M07/M08 A3009 RMK AO2 SLP208 I6001 T10671078 11056 21067 56006
KROW 281051Z AUTO 15012KT 5SM BR OVC003 M07/M08 A3009 RMK AO2 SLP211 I1000 T10671078
KROW 280951Z AUTO 15011KT 6SM BR OVC003 M07/M08 A3009 RMK AO2 SLP211 I1000 T10671078
KROW 280906Z AUTO 15009KT 7SM OVC004 M06/M08 A3011 RMK AO2 T10611078
KROW 280851Z AUTO 15011KT 8SM OVC005 M06/M08 A3011 RMK AO2 SLP215 I3001 T10611078 58009
KROW 280751Z AUTO 15010KT 6SM BR OVC005 M06/M07 A3011 RMK AO2 SLP218 T10611072
KROW 280651Z AUTO 15012KT 7SM OVC008 M06/M08 A3013 RMK AO2 CIG 005V010 SLP226 I1001 T10611078 410441072
KROW 280551Z AUTO 15009KT 7SM OVC008 M06/M07 A3014 RMK AO2 SLP228 I1000 I6000 T10561072 11044 21061 56000
KROW 280517Z AUTO 14010KT 8SM BKN009 OVC014 M06/M08 A3014 RMK AO2 CIG 007V012 T10561078
KROW 280505Z AUTO 15012KT 10SM OVC012 M06/M08 A3014 RMK AO2 T10561078
KROW 280451Z AUTO 15010KT 10SM BKN009 OVC014 M06/M08 A3014 RMK AO2 SLP228 T10561078
KROW 280449Z AUTO 14011KT 10SM BKN009 OVC014 M06/M08 A3013 RMK AO2
KROW 280351Z AUTO 14010KT 10SM BKN010 OVC015 M05/M08 A3014 RMK AO2 SLP228 T10501078
KROW 280251Z 11009KT 10SM OVC013 M06/M08 A3012 RMK AO2 SLP223 T10561083 50005
KROW 280247Z 11008KT 10SM OVC015 M06/M08 A3013 RMK AO2
KROW 280236Z 11009KT 10SM OVC013 M06/M08 A3013 RMK AO2 T10561083
KROW 280210Z 12009KT 10SM OVC015 M06/M08 A3012 RMK AO2 T10561083
KROW 280151Z 11009KT 10SM OVC013 M06/M08 A3011 RMK AO2 SLP219 T10561083
KROW 280051Z 13007KT 10SM OVC016 M04/M08 A3011 RMK AO2 SLP216 T10441078
KROW 272351Z 15008KT 10SM OVC015 M04/M08 A3011 RMK AO2 SLP214 T10441078 11044 21067 55004
KROW 272349Z 14008KT 10SM OVC015 M04/M08 A3011 RMK AO2
KROW 272251Z 14008KT 10SM OVC014 M04/M08 A3011 RMK AO2 SLP216 T10441078
KROW 272151Z 14009KT 10SM OVC013 M05/M08 A3012 RMK AO2 SLP218 T10501083
KROW 272051Z 15012KT 10SM OVC013 M06/M08 A3014 RMK AO2 SLP224 T10561083 58026
KROW 271951Z 16009KT 10SM OVC013 M06/M09 A3017 RMK AO2 SLP236 T10561089
KROW 271851Z 14011KT 10SM OVC012 M06/M09 A3019 RMK AO2 SLP244 T10611094
KROW 271751Z 13010KT 10SM OVC011 M07/M09 A3022 RMK AO2 SLP254 60000 T10671094 11061 21072 50000
KROW 271651Z 14011KT 10SM OVC012 M07/M09 A3023 RMK AO2 SLP255 T10671094
KROW 271610Z 12012KT 10SM BKN012 OVC017 M07/M10 A3023 RMK AO2 T10721100
KROW 271551Z 12011KT 10SM BKN017 OVC023 M07/M10 A3023 RMK AO2 SLP253 T10721100
KROW 271509Z 12014KT 8SM OVC015 M07/M11 A3023 RMK AO2 T10721106
KROW 271451Z 11011KT 7SM OVC014 M07/M10 A3022 RMK AO2 SLP250 60000 T10721100 51011
KROW 271446Z 11013KT 6SM HZ OVC014 M07/M10 A3022 RMK AO2
KROW 271411Z 11009KT 10SM OVC018 M07/M09 A3020 RMK AO2 T10671089
KROW 271351Z 10008KT 10SM OVC014 M07/M09 A3020 RMK AO2 SLP242 T10671089
KROW 271337Z 10006KT 10SM BKN014 OVC019 M07/M09 A3020 RMK AO2 T10671089
KROW 271251Z AUTO 10007KT 10SM BKN017 OVC038 M07/M08 A3018 RMK AO2 SNE44 SLP236 P0000 T10671083
KROW 271244Z AUTO 10007KT 9SM BKN019 OVC038 M07/M08 A3019 RMK AO2 SNE44 P0000 T10671083
KROW 281142Z 2812/0112 15010KT 6SM BR VCSH OVC010 
     TEMPO 2812/2815 3SM BR OVC005 
     FM281700 16013KT P6SM VCSH SCT015 OVC035 
     FM010100 13010KT P6SM SCT035 BKN050 
     FM010800 VRB04KT 3SM BR SCT009